utilisation pie
utilisation bar
humidity graph
temperature graph
Station id: aae83c for 2 days

start:   stop:  

day time in temp out temp in RH out RH H quota rule action
2020-08-14 00:08:34 29.6 17.4 34 82 121 i
1
2020-08-14 00:38:46 29.6 17.2 34 83 122 i
1
2020-08-14 01:08:57 29.6 17.0 34 83 121 i
1
2020-08-14 01:39:09 29.5 16.8 34 83 120 i
1
2020-08-14 02:09:20 29.4 16.7 34 85 122 i
1
2020-08-14 02:39:32 29.2 16.8 34 86 125 i
1
2020-08-14 03:09:43 26.4 16.9 39 86 127 h 0
2020-08-14 03:40:21 24.9 16.9 43 87 126 h 0
2020-08-14 04:10:32 24.0 16.9 45 87 127 h 0
2020-08-14 04:40:44 25.1 17.0 42 87 128 h 0
2020-08-14 05:10:56 26.9 17.1 38 87 129 h 0
2020-08-14 05:41:08 27.6 17.3 37 88 132 h 0
2020-08-14 06:11:20 26.0 17.5 40 88 136 h 0
2020-08-14 06:41:33 24.3 17.7 44 87 135 h 0
2020-08-14 07:11:45 23.4 18.1 46 87 139 h 0
2020-08-14 07:41:57 24.6 18.4 43 86 139 h 0
2020-08-14 08:12:09 26.4 18.6 39 96 157 H 0
2020-08-14 08:42:10 27.2 19.1 37 94 158 H 0
2020-08-14 09:12:11 25.4 20.0 41 87 156 H 0
2020-08-14 09:42:12 23.9 21.0 45 81 153 H 0
2020-08-14 10:12:13 23.4 21.5 46 80 156 H 0
2020-08-14 10:42:14 26.0 22.2 40 74 150 H 0
2020-08-14 11:12:16 27.1 22.5 38 75 153 H 0
2020-08-14 11:42:17 27.7 23.8 36 61 135 H 0
2020-08-14 12:12:18 25.4 25.1 41 46 110 H 0
2020-08-14 12:42:19 24.0 24.9 40 39 103 H 0
2020-08-14 13:12:20 24.6 25.6 42 40 101 H 0
2020-08-14 13:42:21 26.9 26.4 37 42 111 H 0
2020-08-14 14:12:23 28.1 26.9 35 41 112 I
1
2020-08-14 14:42:24 28.9 26.6 34 42 111 I
1
2020-08-14 15:12:25 29.4 27.0 33 43 114 I
1
2020-08-14 15:42:26 28.3 27.3 35 40 108 J 0
2020-08-14 16:12:27 26.4 27.2 40 40 105 H 0
2020-08-14 16:42:28 25.6 27.2 42 40 104 H 0
2020-08-14 17:12:29 25.6 27.2 42 38 98 H 0
2020-08-14 17:42:31 27.9 27.4 36 38 101 H 0
2020-08-14 18:12:32 29.8 27.5 34 37 98 I
1
2020-08-14 18:42:33 31.1 26.9 32 39 96 I
1
2020-08-14 19:12:34 31.9 25.6 32 49 110 I
1
2020-08-14 19:42:35 32.5 24.1 31 56 112 I
1
2020-08-14 20:12:36 33.1 22.9 30 60 112 I
1
2020-08-14 20:42:38 33.6 22.1 30 64 113 D
1
2020-08-14 21:12:39 33.7 20.8 30 67 110 D
1
2020-08-14 21:42:40 33.6 20.6 30 68 110 I
1
2020-08-14 22:12:41 33.5 19.6 30 72 110 I
1
2020-08-14 22:42:42 33.4 19.1 31 74 110 I
1
2020-08-14 23:12:43 33.1 18.8 31 75 110 I
1
2020-08-14 23:42:44 33.0 18.8 30 75 112 I
1
2020-08-15 00:12:46 33.0 17.9 31 79 112 I
1
2020-08-15 00:42:47 32.6 17.6 31 81 113 I
1
2020-08-15 01:12:48 32.3 17.2 31 83 113 I
1
2020-08-15 01:42:49 32.1 17.0 32 86 115 I
1
2020-08-15 02:12:50 29.3 16.6 37 89 117 I
1
2020-08-15 02:42:51 27.7 16.7 40 88 116 H 0
2020-08-15 03:12:53 26.7 16.5 43 90 117 H 0
2020-08-15 03:42:54 28.3 16.3 39 91 118 I
1
2020-08-15 04:12:55 29.5 16.0 36 94 120 I
1
2020-08-15 04:42:56 27.2 16.0 41 95 122 H 0
2020-08-15 05:12:57 26.0 16.0 44 95 122 H 0
2020-08-15 05:42:58 25.8 16.0 44 95 123 H 0
2020-08-15 06:12:59 27.9 16.9 39 93 127 H 0
2020-08-15 06:43:01 26.9 17.9 41 88 129 H 0


2020-08-15 07:19:25 CEST